Time;durP1;ratioP1;P1;durP2;ratioP2;P2;SDS_P1;SDS_P2;PMS_P1;PMS_P2;Temp;Humidity;BMP_temperature;BMP_pressure;BME280_temperature;BME280_humidity;BME280_pressure;Samples;Min_cycle;Max_cycle;Signal;HPM_P1;HPM_P2
2023/05/14 00:01:53;;;;;;;2.78;2.00;;;;;;;14.25;100.00;100753.97;4989685;28;20370;-77
2023/05/14 00:04:22;;;;;;;6.07;1.80;;;;;;;14.35;100.00;100747.47;4989060;28;20047;-77
2023/05/14 00:06:50;;;;;;;1.95;1.50;;;;;;;14.37;100.00;100736.97;4989711;28;20061;-78
2023/05/14 00:09:18;;;;;;;1.85;1.55;;;;;;;14.42;100.00;100733.34;4989704;28;20054;-78
2023/05/14 00:11:47;;;;;;;2.08;1.50;;;;;;;14.45;100.00;100738.22;4989629;28;20046;-77
2023/05/14 00:14:15;;;;;;;1.67;1.40;;;;;;;14.38;100.00;100724.88;4989494;28;20042;-77
2023/05/14 00:16:43;;;;;;;2.08;1.85;;;;;;;14.41;100.00;100729.75;4989197;28;20057;-77
2023/05/14 00:19:11;;;;;;;1.95;1.55;;;;;;;14.31;100.00;100735.44;4989349;28;20050;-78
2023/05/14 00:21:39;;;;;;;2.13;1.65;;;;;;;14.26;100.00;100721.78;4989567;28;20042;-78
2023/05/14 00:24:07;;;;;;;5.15;1.77;;;;;;;14.30;100.00;100728.28;5021792;28;20145;-77
2023/05/14 00:26:35;;;;;;;2.15;1.80;;;;;;;14.19;100.00;100716.66;4992770;28;20051;-77
2023/05/14 00:29:03;;;;;;;1.45;1.35;;;;;;;14.18;100.00;100710.31;5023552;28;20045;-78
2023/05/14 00:31:31;;;;;;;2.88;1.75;;;;;;;14.16;100.00;100712.56;4992250;28;20050;-77
2023/05/14 00:33:59;;;;;;;2.35;1.80;;;;;;;14.13;100.00;100718.66;4991659;28;20054;-78
2023/05/14 00:36:26;;;;;;;4.63;1.63;;;;;;;14.11;100.00;100707.16;4992268;28;20113;-77
2023/05/14 00:38:54;;;;;;;2.03;1.55;;;;;;;14.17;100.00;100705.94;4991150;28;20061;-77
2023/05/14 00:41:22;;;;;;;2.67;1.35;;;;;;;14.27;100.00;100701.38;4992324;28;20042;-78
2023/05/14 00:43:50;;;;;;;2.28;1.77;;;;;;;14.38;100.00;100702.84;5023643;28;20042;-78
2023/05/14 00:46:19;;;;;;;2.90;1.63;;;;;;;14.36;100.00;100703.13;4992339;28;20061;-77
2023/05/14 00:48:47;;;;;;;3.10;1.73;;;;;;;14.34;100.00;100693.53;5023420;28;20061;-78
2023/05/14 00:51:17;;;;;;;4.82;1.60;;;;;;;14.32;100.00;100693.84;5023524;28;20080;-78
2023/05/14 00:53:46;;;;;;;1.42;1.33;;;;;;;14.32;100.00;100688.34;4992257;28;20057;-77
2023/05/14 00:56:15;;;;;;;2.67;1.50;;;;;;;14.26;100.00;100683.25;4992120;28;20065;-77
2023/05/14 00:58:46;;;;;;;1.85;1.67;;;;;;;14.14;100.00;100681.78;5023650;28;20054;-76
2023/05/14 01:01:14;;;;;;;7.20;1.52;;;;;;;14.26;100.00;100667.53;4992303;28;20038;-76
2023/05/14 01:03:43;;;;;;;3.75;1.73;;;;;;;14.21;100.00;100671.19;4992079;28;20042;-76
2023/05/14 01:06:20;;;;;;;3.10;1.92;;;;;;;14.21;100.00;100671.19;4991934;28;20044;-76
2023/05/14 01:09:11;;;;;;;1.77;1.67;;;;;;;14.15;100.00;100672.41;4991977;28;20489;-76
2023/05/14 01:12:15;;;;;;;1.60;1.50;;;;;;;14.05;100.00;100670.66;4991799;28;20042;-76
2023/05/14 01:15:05;;;;;;;1.92;1.70;;;;;;;14.17;100.00;100658.34;4969682;28;20054;-76
2023/05/14 01:17:40;;;;;;;2.65;1.70;;;;;;;14.04;100.00;100660.78;5023219;28;20053;-76
2023/05/14 01:20:09;;;;;;;2.50;1.27;;;;;;;14.04;100.00;100659.94;4990422;28;20054;-76
2023/05/14 01:22:37;;;;;;;3.00;1.65;;;;;;;14.00;100.00;100654.22;4991909;28;20371;-76
2023/05/14 01:25:06;;;;;;;1.88;1.65;;;;;;;13.93;100.00;100657.34;4991832;28;20055;-76
2023/05/14 01:27:40;;;;;;;2.00;1.80;;;;;;;13.94;100.00;100644.44;4990698;28;20050;-76
2023/05/14 01:30:17;;;;;;;;;;;;;;;13.90;100.00;100654.38;4990948;28;20046;-76
2023/05/14 01:32:49;;;;;;;2.33;1.45;;;;;;;13.93;100.00;100645.56;4991617;28;19922;-77
2023/05/14 01:35:21;;;;;;;4.90;1.65;;;;;;;13.89;100.00;100644.50;4989667;28;20038;-76
2023/05/14 01:37:51;;;;;;;2.22;1.70;;;;;;;13.88;100.00;100642.88;5093052;28;20057;-76
2023/05/14 01:40:20;;;;;;;2.47;1.60;;;;;;;13.78;100.00;100644.66;4990606;28;20046;-76
2023/05/14 01:42:52;;;;;;;1.92;1.73;;;;;;;13.83;100.00;100632.75;4990615;28;20536;-76
2023/05/14 01:45:21;;;;;;;1.70;1.58;;;;;;;13.85;100.00;100636.03;4991656;28;20049;-76
2023/05/14 01:47:50;;;;;;;1.60;1.50;;;;;;;13.96;100.00;100626.50;4990079;28;20077;-76
2023/05/14 01:50:18;;;;;;;2.40;1.52;;;;;;;14.03;100.00;100630.81;4991675;28;20396;-76
2023/05/14 01:52:47;;;;;;;2.45;2.05;;;;;;;14.14;100.00;100632.25;4990386;28;20050;-76
2023/05/14 01:55:17;;;;;;;1.70;1.55;;;;;;;14.26;100.00;100622.69;4991385;28;20050;-76
2023/05/14 01:57:45;;;;;;;1.60;1.50;;;;;;;14.11;100.00;100628.16;5022556;28;20408;-76
2023/05/14 02:00:13;;;;;;;1.40;1.30;;;;;;;14.01;100.00;100627.50;5092465;28;20681;-76
2023/05/14 02:02:40;;;;;;;1.38;1.13;;;;;;;13.90;100.00;100608.47;4991313;28;20124;-76
2023/05/14 02:05:12;;;;;;;1.30;1.15;;;;;;;13.82;100.00;100618.22;4990413;28;20050;-76
2023/05/14 02:07:40;;;;;;;1.17;1.08;;;;;;;13.79;100.00;100615.25;4990277;28;20043;-76
2023/05/14 02:10:09;;;;;;;1.45;1.33;;;;;;;13.78;100.00;100611.66;4989698;28;20047;-76
2023/05/14 02:12:37;;;;;;;1.88;1.30;;;;;;;13.70;100.00;100604.91;4991272;28;20069;-76
2023/05/14 02:15:07;;;;;;;1.63;1.52;;;;;;;13.73;100.00;100614.50;4989940;28;20054;-76
2023/05/14 02:17:35;;;;;;;1.73;1.40;;;;;;;13.76;100.00;100615.84;4989803;28;20050;-76
2023/05/14 02:20:04;;;;;;;1.60;1.50;;;;;;;13.79;100.00;100613.28;4990878;28;20077;-76
2023/05/14 02:22:37;;;;;;;1.60;1.50;;;;;;;13.75;100.00;100603.22;4991485;28;20046;-76
2023/05/14 02:25:05;;;;;;;1.65;1.52;;;;;;;13.74;100.00;100604.31;4973939;28;20061;-76
2023/05/14 02:27:34;;;;;;;1.70;1.60;;;;;;;13.86;100.00;100603.84;4991330;28;20054;-76
2023/05/14 02:30:03;;;;;;;2.70;2.00;;;;;;;13.83;100.00;100608.84;4991022;28;20061;-76
2023/05/14 02:32:31;;;;;;;1.80;1.70;;;;;;;13.83;100.00;100605.25;4991003;28;20485;-76
2023/05/14 02:34:59;;;;;;;3.92;1.63;;;;;;;13.80;100.00;100600.38;4990593;28;20488;-76
2023/05/14 02:37:27;;;;;;;2.30;1.92;;;;;;;13.90;100.00;100605.72;4990471;28;20062;-76
2023/05/14 02:39:55;;;;;;;5.05;2.58;;;;;;;13.77;100.00;100609.22;4989716;28;20382;-76
2023/05/14 02:42:23;;;;;;;4.72;2.35;;;;;;;13.74;100.00;100596.06;4990830;28;20053;-76
2023/05/14 02:44:51;;;;;;;2.55;2.08;;;;;;;13.74;100.00;100598.81;4989069;28;20133;-76
2023/05/14 02:47:19;;;;;;;2.55;2.13;;;;;;;13.61;100.00;100595.72;4989634;28;20038;-77
2023/05/14 02:49:48;;;;;;;5.82;2.15;;;;;;;13.69;100.00;100589.53;4989532;28;20046;-76
2023/05/14 02:52:15;;;;;;;2.17;1.85;;;;;;;13.62;100.00;100586.38;4990455;28;20057;-77
2023/05/14 02:54:43;;;;;;;2.47;1.58;;;;;;;13.57;100.00;100575.44;4990728;28;20055;-77
2023/05/14 02:57:12;;;;;;;1.70;1.60;;;;;;;13.53;100.00;100577.16;4989364;28;20046;-77
2023/05/14 02:59:40;;;;;;;1.63;1.52;;;;;;;13.63;100.00;100577.00;4989113;28;20046;-77
2023/05/14 03:02:08;;;;;;;2.25;1.58;;;;;;;13.68;100.00;100571.41;4990330;28;20057;-77
2023/05/14 03:04:37;;;;;;;1.55;1.45;;;;;;;13.72;100.00;100577.13;4989207;28;20054;-77
2023/05/14 03:07:05;;;;;;;1.33;1.23;;;;;;;13.72;100.00;100571.63;4990360;28;20039;-77
2023/05/14 03:09:34;;;;;;;3.25;1.65;;;;;;;13.67;100.00;100567.03;4990585;28;20053;-77
2023/05/14 03:12:05;;;;;;;1.48;1.38;;;;;;;13.68;100.00;100576.91;4990414;28;20050;-77
2023/05/14 03:14:33;;;;;;;1.70;1.42;;;;;;;13.69;100.00;100562.03;4990509;28;20050;-77
2023/05/14 03:17:02;;;;;;;1.23;1.15;;;;;;;13.65;100.00;100566.50;4990209;28;20042;-77
2023/05/14 03:19:30;;;;;;;2.38;1.60;;;;;;;13.62;100.00;100561.63;4990383;28;20771;-77
2023/05/14 03:21:59;;;;;;;1.77;1.50;;;;;;;13.50;100.00;100564.81;4990264;28;20062;-77
2023/05/14 03:24:26;;;;;;;2.33;1.65;;;;;;;13.47;100.00;100559.09;4988986;28;20042;-77
2023/05/14 03:26:54;;;;;;;3.97;1.70;;;;;;;13.53;100.00;100558.75;4990315;28;20046;-77
2023/05/14 03:29:22;;;;;;;2.25;1.52;;;;;;;13.53;100.00;100558.75;4990332;28;20039;-77
2023/05/14 03:31:50;;;;;;;2.45;1.75;;;;;;;13.59;100.00;100564.94;4989934;28;20517;-77
2023/05/14 03:34:18;;;;;;;1.73;1.63;;;;;;;13.59;100.00;100562.19;4988998;28;20042;-77
2023/05/14 03:36:46;;;;;;;3.72;1.55;;;;;;;13.57;100.00;100558.94;4990113;28;20042;-77
2023/05/14 03:39:18;;;;;;;1.55;1.40;;;;;;;13.51;100.00;100551.91;4989953;28;20054;-77
2023/05/14 03:41:47;;;;;;;2.80;1.65;;;;;;;13.55;100.00;100566.69;4989990;28;20057;-77
2023/05/14 03:44:15;;;;;;;1.75;1.20;;;;;;;13.61;100.00;100564.66;4988901;28;20057;-76
2023/05/14 03:46:44;;;;;;;1.45;1.35;;;;;;;13.64;100.00;100566.81;4988789;28;20053;-77
2023/05/14 03:49:11;;;;;;;1.63;1.40;;;;;;;13.57;100.00;100572.69;4989940;28;20053;-77
2023/05/14 03:51:39;;;;;;;1.48;1.38;;;;;;;13.54;100.00;100560.38;4987953;28;20047;-76
2023/05/14 03:54:09;;;;;;;2.78;1.20;;;;;;;13.66;100.00;100567.31;4988633;28;20142;-77
2023/05/14 03:56:37;;;;;;;1.73;1.63;;;;;;;13.60;100.00;100568.53;4989349;28;20045;-76
2023/05/14 03:59:05;;;;;;;1.92;1.50;;;;;;;13.65;100.00;100572.00;4989378;28;20042;-77
2023/05/14 04:01:33;;;;;;;1.70;1.60;;;;;;;13.76;100.00;100560.81;4989870;28;20043;-77
2023/05/14 04:04:01;;;;;;;2.63;1.55;;;;;;;13.70;100.00;100560.91;4989807;28;20069;-77
2023/05/14 04:06:30;;;;;;;1.95;1.35;;;;;;;13.60;100.00;100560.28;4988670;28;20493;-76
2023/05/14 04:08:58;;;;;;;1.55;1.20;;;;;;;13.62;100.00;100567.13;4988614;28;20046;-77
2023/05/14 04:11:26;;;;;;;1.73;1.55;;;;;;;13.63;100.00;100557.75;4989279;28;20582;-77
2023/05/14 04:13:54;;;;;;;1.65;1.55;;;;;;;13.76;100.00;100558.06;5020567;28;20410;-77
2023/05/14 04:16:22;;;;;;;2.42;1.60;;;;;;;13.74;100.00;100557.56;5020809;28;20374;-77
2023/05/14 04:18:50;;;;;;;1.50;1.40;;;;;;;13.68;100.00;100560.41;4989664;28;20399;-77
2023/05/14 04:21:18;;;;;;;1.52;1.40;;;;;;;13.67;100.00;100564.28;4989617;28;20054;-77
2023/05/14 04:23:46;;;;;;;2.08;1.42;;;;;;;13.65;100.00;100554.69;4989567;28;20046;-77
2023/05/14 04:26:14;;;;;;;3.83;1.55;;;;;;;13.84;100.00;100547.19;4989552;28;20053;-77
2023/05/14 04:28:42;;;;;;;1.67;1.13;;;;;;;13.85;100.00;100556.28;4989216;28;20049;-77
2023/05/14 04:31:10;;;;;;;1.83;1.73;;;;;;;13.92;100.00;100545.69;4989332;28;20051;-77
2023/05/14 04:33:38;;;;;;;1.70;1.60;;;;;;;13.97;100.00;100551.09;4989546;28;20058;-77
2023/05/14 04:36:07;;;;;;;1.83;1.70;;;;;;;13.87;100.00;100554.03;4989350;28;20394;-77
2023/05/14 04:38:35;;;;;;;1.70;1.60;;;;;;;13.83;100.00;100553.00;4989513;28;20405;-77
2023/05/14 04:41:04;;;;;;;1.98;1.75;;;;;;;13.86;100.00;100551.56;4988919;28;20047;-77
2023/05/14 04:43:32;;;;;;;1.92;1.83;;;;;;;13.91;100.00;100555.06;4988881;28;20049;-77
2023/05/14 04:46:00;;;;;;;1.85;1.70;;;;;;;13.95;100.00;100564.34;4988669;28;20042;-77
2023/05/14 04:48:28;;;;;;;2.25;2.05;;;;;;;13.95;100.00;100572.59;4988915;28;20042;-77
2023/05/14 04:50:56;;;;;;;2.92;2.10;;;;;;;14.02;100.00;100574.16;5020606;28;20393;-77
2023/05/14 04:53:24;;;;;;;2.78;2.17;;;;;;;13.97;100.00;100564.84;4988872;28;20397;-78
2023/05/14 04:55:53;;;;;;;2.85;1.98;;;;;;;13.97;100.00;100577.78;4988150;28;20053;-79
2023/05/14 04:58:22;;;;;;;3.78;1.70;;;;;;;13.93;100.00;100582.28;4973521;28;20058;-77
2023/05/14 05:00:50;;;;;;;2.30;2.10;;;;;;;13.97;100.00;100581.38;4969566;28;20370;-80
2023/05/14 05:03:18;;;;;;;2.40;2.20;;;;;;;13.95;100.00;100591.03;4969616;28;20043;-80
2023/05/14 05:05:46;;;;;;;3.35;2.80;;;;;;;13.87;100.00;100586.25;4969701;28;20436;-79
2023/05/14 05:08:15;;;;;;;3.92;2.90;;;;;;;13.94;100.00;100584.69;4969262;28;20062;-80
2023/05/14 05:10:43;;;;;;;2.95;2.65;;;;;;;13.92;100.00;100586.13;4977633;28;20082;-77
2023/05/14 05:13:11;;;;;;;2.83;2.55;;;;;;;13.88;100.00;100587.88;4991605;28;20047;-78
2023/05/14 05:15:39;;;;;;;6.57;2.90;;;;;;;13.83;100.00;100588.75;4974535;28;20713;-78
2023/05/14 05:18:07;;;;;;;3.25;2.70;;;;;;;13.78;100.00;100586.91;4988016;28;20043;-78
2023/05/14 05:20:35;;;;;;;3.03;2.67;;;;;;;13.89;100.00;100589.50;4981691;28;20054;-77
2023/05/14 05:23:03;;;;;;;4.22;2.75;;;;;;;13.95;100.00;100585.53;4990586;28;20049;-78
2023/05/14 05:25:31;;;;;;;3.38;3.00;;;;;;;14.03;100.00;100578.53;4991561;28;20374;-79
2023/05/14 05:28:00;;;;;;;5.32;2.97;;;;;;;14.02;100.00;100583.19;4991196;28;20046;-79
2023/05/14 05:30:29;;;;;;;3.72;3.42;;;;;;;14.02;100.00;100572.19;4984379;28;20050;-78
2023/05/14 05:32:57;;;;;;;3.85;3.20;;;;;;;14.10;100.00;100573.44;4980577;28;20046;-79
2023/05/14 05:35:25;;;;;;;3.47;3.03;;;;;;;14.18;100.00;100580.16;4991959;28;20057;-79
2023/05/14 05:37:52;;;;;;;3.45;3.20;;;;;;;14.10;100.00;100585.25;4991602;28;20050;-79
2023/05/14 05:40:20;;;;;;;3.17;2.90;;;;;;;14.07;100.00;100576.78;4972625;28;20045;-79
2023/05/14 05:42:48;;;;;;;2.90;2.42;;;;;;;14.11;100.00;100583.31;4973335;28;20078;-78
2023/05/14 05:45:16;;;;;;;4.72;2.92;;;;;;;14.17;100.00;100587.59;4991510;28;20051;-78
2023/05/14 05:47:44;;;;;;;4.30;3.25;;;;;;;14.13;100.00;100580.25;4991725;28;20077;-78
2023/05/14 05:50:13;;;;;;;3.30;3.00;;;;;;;14.17;100.00;100587.59;4991086;28;20042;-79
2023/05/14 05:52:41;;;;;;;3.67;2.95;;;;;;;14.18;100.00;100572.72;4991151;28;20702;-79
2023/05/14 05:55:09;;;;;;;5.65;3.40;;;;;;;14.28;100.00;100581.91;4991870;28;20050;-79
2023/05/14 05:57:37;;;;;;;6.22;3.13;;;;;;;14.36;100.00;100584.75;4991391;28;20043;-79
2023/05/14 06:00:12;;;;;;;3.05;2.85;;;;;;;14.53;100.00;100583.34;4991839;28;20046;-79
2023/05/14 06:02:40;;;;;;;4.47;3.40;;;;;;;14.70;100.00;100587.38;4980214;28;20042;-79
2023/05/14 06:05:09;;;;;;;3.63;3.03;;;;;;;14.74;100.00;100581.00;4990437;28;20047;-78
2023/05/14 06:07:38;;;;;;;3.08;2.78;;;;;;;14.78;100.00;100589.47;5009597;28;20055;-79
2023/05/14 06:10:06;;;;;;;4.32;3.25;;;;;;;14.92;100.00;100586.69;4994932;28;20493;-78
2023/05/14 06:12:34;;;;;;;3.83;3.30;;;;;;;14.87;100.00;100578.53;4991228;28;20046;-79
2023/05/14 06:15:02;;;;;;;5.00;3.22;;;;;;;14.84;100.00;100582.72;4990415;28;20046;-78
2023/05/14 06:17:31;;;;;;;5.07;2.97;;;;;;;14.90;100.00;100581.47;4989750;28;20051;-78
2023/05/14 06:19:59;;;;;;;4.05;3.60;;;;;;;14.95;100.00;100577.00;4990947;28;20050;-79
2023/05/14 06:22:27;;;;;;;6.30;3.50;;;;;;;14.86;100.00;100585.16;4976725;28;20058;-79
2023/05/14 06:24:55;;;;;;;6.05;4.38;;;;;;;14.98;100.00;100585.44;4971955;28;20051;-79
2023/05/14 06:27:23;;;;;;;7.25;3.92;;;;;;;15.17;100.00;100574.25;4987078;28;20045;-79
2023/05/14 06:29:50;;;;;;;5.97;4.35;;;;;;;15.09;100.00;100579.69;4999002;28;20049;-79
2023/05/14 06:32:18;;;;;;;4.80;4.32;;;;;;;15.19;100.00;100587.72;4981352;28;20042;-79
2023/05/14 06:34:47;;;;;;;4.88;4.13;;;;;;;15.28;100.00;100574.84;4989943;28;20404;-79
2023/05/14 06:37:15;;;;;;;4.65;4.10;;;;;;;15.14;100.00;100574.06;4984765;28;20054;-79
2023/05/14 06:39:48;;;;;;;4.10;3.70;;;;;;;15.24;100.00;100567.50;4986992;28;20046;-78
2023/05/14 06:42:17;;;;;;;6.15;3.83;;;;;;;15.16;100.00;100569.06;5016539;28;20054;-78
2023/05/14 06:44:45;;;;;;;4.15;3.67;;;;;;;15.18;100.00;100575.91;4981460;28;20406;-78
2023/05/14 06:47:12;;;;;;;4.30;3.90;;;;;;;15.28;100.00;100563.81;4989641;28;20047;-79
2023/05/14 06:49:40;;;;;;;4.50;3.80;;;;;;;15.32;100.00;100567.56;4990196;28;20700;-80
2023/05/14 06:52:08;;;;;;;4.40;4.00;;;;;;;15.24;100.00;100551.78;4989490;28;20477;-80
2023/05/14 06:54:36;;;;;;;4.75;3.63;;;;;;;15.27;100.00;100545.66;4990374;28;20477;-81
2023/05/14 06:57:04;;;;;;;6.38;3.92;;;;;;;15.21;100.00;100546.91;4978246;28;20050;-81
2023/05/14 06:59:32;;;;;;;5.38;3.50;;;;;;;15.12;100.00;100551.50;4974209;28;20786;-81
2023/05/14 07:02:01;;;;;;;3.92;3.50;;;;;;;15.11;100.00;100563.66;4973883;28;20042;-81
2023/05/14 07:04:29;;;;;;;3.90;3.50;;;;;;;15.10;100.00;100564.81;4970850;28;20050;-80
2023/05/14 07:06:57;;;;;;;5.28;3.15;;;;;;;15.20;100.00;100567.28;4978543;28;20050;-80
2023/05/14 07:09:25;;;;;;;3.63;3.30;;;;;;;15.23;100.00;100560.34;5090035;28;20401;-79
2023/05/14 07:11:53;;;;;;;4.63;3.20;;;;;;;15.29;100.00;100570.13;4985824;28;20405;-80
2023/05/14 07:14:21;;;;;;;5.07;3.22;;;;;;;15.47;100.00;100560.06;4981133;28;20046;-80
2023/05/14 07:16:49;;;;;;;5.20;2.85;;;;;;;15.61;100.00;100557.22;4981436;28;20066;-80
2023/05/14 07:19:17;;;;;;;2.67;2.47;;;;;;;15.58;100.00;100549.56;4987864;28;20054;-80
2023/05/14 07:21:45;;;;;;;3.35;2.80;;;;;;;15.82;100.00;100553.94;4980356;28;20042;-80
2023/05/14 07:24:13;;;;;;;4.22;3.10;;;;;;;15.88;100.00;100540.81;4985818;28;20043;-80
2023/05/14 07:26:41;;;;;;;3.22;2.50;;;;;;;15.81;100.00;100552.31;4987699;28;20393;-80
2023/05/14 07:29:09;;;;;;;3.55;2.95;;;;;;;15.75;100.00;100548.06;4975777;28;20124;-79
2023/05/14 07:31:37;;;;;;;3.03;2.83;;;;;;;15.71;100.00;100542.34;4978644;28;20519;-79
2023/05/14 07:34:05;;;;;;;3.28;3.08;;;;;;;15.84;100.00;100541.44;4991795;28;20061;-79
2023/05/14 07:36:33;;;;;;;3.67;2.60;;;;;;;15.96;100.00;100540.06;4979336;28;20053;-79
2023/05/14 07:39:01;;;;;;;3.55;3.15;;;;;;;15.93;100.00;100533.25;5004436;28;20042;-79
2023/05/14 07:41:29;;;;;;;4.28;2.83;;;;;;;15.99;99.99;100531.19;4992727;28;20038;-79
2023/05/14 07:43:57;;;;;;;3.10;2.75;;;;;;;15.92;99.47;100534.38;4998619;28;20074;-79
2023/05/14 07:46:25;;;;;;;3.55;3.10;;;;;;;15.85;100.00;100536.75;4976120;28;20039;-80
2023/05/14 07:48:54;;;;;;;3.10;2.80;;;;;;;15.94;100.00;100539.59;4978171;28;20066;-80
2023/05/14 07:51:21;;;;;;;3.15;2.92;;;;;;;15.99;100.00;100528.41;4980982;28;20401;-80
2023/05/14 07:53:49;;;;;;;3.72;2.88;;;;;;;16.03;100.00;100528.59;5006328;28;20046;-80
2023/05/14 07:56:18;;;;;;;3.03;2.70;;;;;;;16.11;100.00;100523.09;4988502;28;20039;-80
2023/05/14 07:58:46;;;;;;;3.42;3.10;;;;;;;16.08;98.51;100518.22;4972815;28;20039;-81
2023/05/14 08:01:14;;;;;;;3.17;2.88;;;;;;;16.03;97.55;100532.16;4978387;28;20045;-81
2023/05/14 08:03:42;;;;;;;3.88;2.88;;;;;;;16.04;98.36;100522.72;4979605;28;20703;-81
2023/05/14 08:06:11;;;;;;;3.30;3.00;;;;;;;16.16;100.00;100508.34;4983560;28;20054;-82
2023/05/14 08:08:38;;;;;;;3.17;2.63;;;;;;;16.34;98.99;100525.78;4985930;28;20050;-81
2023/05/14 08:11:06;;;;;;;3.40;2.83;;;;;;;16.39;98.81;100511.00;4971622;28;20050;-80
2023/05/14 08:13:34;;;;;;;2.38;2.17;;;;;;;16.20;98.44;100500.22;4987381;28;20055;-82
2023/05/14 08:16:02;;;;;;;4.20;2.63;;;;;;;16.17;99.34;100500.88;4987875;28;20401;-82
2023/05/14 08:18:30;;;;;;;2.70;2.50;;;;;;;16.06;100.00;100509.44;4987946;28;20046;-82
2023/05/14 08:20:58;;;;;;;2.38;2.17;;;;;;;15.88;100.00;100496.69;4978193;28;20611;-83
2023/05/14 08:23:29;;;;;;;2.50;2.30;;;;;;;15.92;100.00;100494.88;4971889;28;20046;-84
2023/05/14 08:25:58;;;;;;;2.58;2.20;;;;;;;15.97;100.00;100511.34;4989072;28;20047;-83
2023/05/14 08:28:26;;;;;;;2.42;2.22;;;;;;;15.97;99.61;100505.81;4989286;28;20065;-83
2023/05/14 08:30:54;;;;;;;4.10;2.33;;;;;;;16.04;100.00;100506.16;4989134;28;20054;-84
2023/05/14 08:33:22;;;;;;;4.28;3.25;;;;;;;16.12;100.00;100507.34;4988078;28;20042;-83
2023/05/14 08:35:53;;;;;;;2.47;2.22;;;;;;;16.01;100.00;100506.81;4988544;28;20047;-83
2023/05/14 08:38:21;;;;;;;4.35;2.47;;;;;;;16.05;100.00;100505.06;4988971;28;20035;-83
2023/05/14 08:40:56;;;;;;;3.00;2.67;;;;;;;16.05;100.00;100493.19;4986996;28;20038;-83
2023/05/14 08:43:28;;;;;;;4.45;2.53;;;;;;;15.99;100.00;100509.88;4988171;28;20053;-83
2023/05/14 08:45:59;;;;;;;2.35;2.15;;;;;;;15.80;100.00;100490.78;4990343;28;20038;-83
2023/05/14 08:48:32;;;;;;;3.20;2.70;;;;;;;15.76;100.00;100495.31;4990802;28;20065;-83
2023/05/14 08:51:01;;;;;;;4.53;2.85;;;;;;;15.70;100.00;100496.59;4991978;28;20493;-82
2023/05/14 08:53:30;;;;;;;3.20;2.90;;;;;;;15.62;100.00;100498.16;4980747;28;20042;-82
2023/05/14 08:56:01;;;;;;;4.30;3.17;;;;;;;15.59;100.00;100494.09;4990557;28;20516;-83
2023/05/14 08:58:29;;;;;;;2.20;2.00;;;;;;;15.39;100.00;100492.69;4986231;28;20051;-82
2023/05/14 09:00:57;;;;;;;4.55;3.05;;;;;;;15.35;100.00;100486.16;4991065;28;20050;-82
2023/05/14 09:03:25;;;;;;;4.93;3.60;;;;;;;15.36;100.00;100487.00;5082142;28;20061;-82
2023/05/14 09:05:54;;;;;;;3.80;3.30;;;;;;;15.23;100.00;100489.50;4983854;28;20047;-84
2023/05/14 09:08:24;;;;;;;4.38;3.08;;;;;;;15.21;100.00;100486.25;4987131;28;20050;-85
2023/05/14 09:10:52;;;;;;;3.38;3.08;;;;;;;15.29;100.00;100496.50;4991188;28;20047;-84
2023/05/14 09:13:20;;;;;;;5.88;3.05;;;;;;;15.26;100.00;100490.81;4987948;28;20069;-83
2023/05/14 09:15:50;;;;;;;4.32;3.28;;;;;;;15.20;100.00;100487.34;4984312;28;20055;-82
2023/05/14 09:18:18;;;;;;;5.15;3.72;;;;;;;15.29;100.00;100491.00;4971314;28;20070;-82
2023/05/14 09:20:46;;;;;;;4.63;3.70;;;;;;;15.39;100.00;100481.66;4990987;28;20405;-82
2023/05/14 09:23:21;;;;;;;4.47;3.60;;;;;;;15.50;100.00;100484.94;4983392;28;20046;-81
2023/05/14 09:25:49;;;;;;;4.35;3.95;;;;;;;15.50;100.00;100493.22;4989390;28;20038;-81
2023/05/14 09:28:18;;;;;;;6.10;4.70;;;;;;;15.48;100.00;100489.97;4983134;28;20054;-82
2023/05/14 09:30:51;;;;;;;6.68;4.38;;;;;;;15.57;100.00;100482.59;4979875;28;20049;-82
2023/05/14 09:33:27;;;;;;;5.00;4.25;;;;;;;15.52;100.00;100482.72;4990350;28;20038;-82
2023/05/14 09:36:09;;;;;;;4.70;4.00;;;;;;;15.70;100.00;100486.34;4988639;28;20038;-81
2023/05/14 09:38:38;;;;;;;3.97;3.63;;;;;;;15.71;100.00;100479.72;4998304;28;20054;-82
2023/05/14 09:41:06;;;;;;;4.35;3.72;;;;;;;15.82;100.00;100480.25;5021636;28;20042;-82
2023/05/14 09:43:34;;;;;;;5.00;4.25;;;;;;;15.88;100.00;100480.13;4980763;28;20097;-82
2023/05/14 09:46:02;;;;;;;5.32;4.10;;;;;;;15.92;100.00;100483.84;5002549;28;20050;-82
2023/05/14 09:48:30;;;;;;;6.43;4.45;;;;;;;16.06;100.00;100476.31;5072052;28;20058;-83
2023/05/14 09:50:58;;;;;;;5.93;3.70;;;;;;;16.12;100.00;100468.69;4976195;28;20054;-83
2023/05/14 09:53:26;;;;;;;5.20;4.05;;;;;;;16.21;100.00;100465.94;4981836;28;20054;-83
2023/05/14 09:55:54;;;;;;;4.82;4.32;;;;;;;16.22;100.00;100467.56;4980840;28;20359;-84
2023/05/14 09:58:22;;;;;;;5.30;4.00;;;;;;;16.25;100.00;100459.50;4983417;28;20047;-84
2023/05/14 10:00:51;;;;;;;6.78;5.15;;;;;;;16.35;100.00;100461.13;5021732;28;20055;-83
2023/05/14 10:03:20;;;;;;;5.38;4.75;;;;;;;16.42;100.00;100460.63;4978746;28;20047;-83
2023/05/14 10:05:50;;;;;;;6.45;5.65;;;;;;;16.43;100.00;100455.94;4990722;28;20047;-84
2023/05/14 10:08:25;;;;;;;7.95;5.38;;;;;;;16.60;100.00;100461.47;4990546;28;20467;-83
2023/05/14 10:10:55;;;;;;;6.40;4.50;;;;;;;16.53;100.00;100458.38;4990026;28;20047;-83
2023/05/14 10:13:29;;;;;;;6.70;4.55;;;;;;;16.53;100.00;100453.66;4981423;28;20050;-84
2023/05/14 10:16:07;;;;;;;9.07;5.03;;;;;;;16.46;100.00;100446.97;4990829;28;20421;-84
2023/05/14 10:18:45;;;;;;;5.22;4.72;;;;;;;16.50;100.00;100447.97;4986907;28;20050;-83
2023/05/14 10:21:14;;;;;;;6.22;5.05;;;;;;;16.48;100.00;100442.78;4990643;28;20073;-84
2023/05/14 10:23:42;;;;;;;6.38;4.90;;;;;;;16.56;100.00;100448.66;4990300;28;20053;-84
2023/05/14 10:26:11;;;;;;;7.72;4.53;;;;;;;16.61;100.00;100453.97;4990221;28;20397;-84
2023/05/14 10:28:39;;;;;;;6.13;4.72;;;;;;;16.87;100.00;100448.47;4990179;28;20489;-84
2023/05/14 10:31:12;;;;;;;6.15;4.70;;;;;;;17.04;100.00;100452.38;4989407;28;20046;-84
2023/05/14 10:33:49;;;;;;;5.28;4.70;;;;;;;17.00;100.00;100445.84;4990770;28;20513;-85
2023/05/14 10:36:17;;;;;;;7.32;4.65;;;;;;;17.01;100.00;100451.06;4990148;28;20390;-84
2023/05/14 10:38:46;;;;;;;5.20;4.50;;;;;;;17.20;100.00;100449.91;4989562;28;20485;-83
2023/05/14 10:41:16;;;;;;;5.60;4.38;;;;;;;17.26;97.86;100447.81;4988503;28;20050;-84
2023/05/14 10:43:44;;;;;;;8.38;5.10;;;;;;;17.22;99.63;100449.59;4990520;28;20042;-83
2023/05/14 10:46:13;;;;;;;4.75;3.85;;;;;;;17.47;98.36;100450.69;4987258;28;20043;-82
2023/05/14 10:48:43;;;;;;;5.32;4.82;;;;;;;17.62;95.12;100445.72;4972948;28;20090;-83
2023/05/14 10:51:11;;;;;;;7.28;4.70;;;;;;;17.84;96.77;100447.44;4981817;28;20057;-82
2023/05/14 10:53:41;;;;;;;4.90;4.45;;;;;;;17.97;94.01;100440.84;4984061;28;20046;-90
2023/05/14 10:56:11;;;;;;;8.50;4.90;;;;;;;18.29;94.03;100446.09;4987684;28;20045;-82
2023/05/14 10:58:42;;;;;;;7.43;4.28;;;;;;;18.41;89.07;100442.56;4983526;28;20050;-81
2023/05/14 11:01:12;;;;;;;5.30;4.57;;;;;;;18.35;94.60;100435.59;4978969;28;20050;-79
2023/05/14 11:03:43;;;;;;;6.35;4.30;;;;;;;18.06;91.08;100423.41;4986078;28;20392;-79
2023/05/14 11:06:14;;;;;;;9.20;4.25;;;;;;;18.10;92.23;100430.69;5011519;28;20043;-79
2023/05/14 11:08:43;;;;;;;5.53;4.15;;;;;;;17.86;92.78;100423.81;4982608;28;20407;-79
2023/05/14 11:11:11;;;;;;;7.00;4.15;;;;;;;17.78;93.54;100423.88;4989065;28;20046;-79
2023/05/14 11:13:40;;;;;;;5.85;3.92;;;;;;;17.90;91.92;100425.91;4983912;28;20068;-79
2023/05/14 11:16:08;;;;;;;5.85;4.03;;;;;;;17.83;93.99;100418.94;4975550;28;20043;-79
2023/05/14 11:18:40;;;;;;;4.10;3.50;;;;;;;17.92;91.65;100423.63;4987443;28;20061;-79
2023/05/14 11:21:09;;;;;;;4.60;3.50;;;;;;;17.76;91.10;100420.59;4989071;28;20536;-79
2023/05/14 11:23:37;;;;;;;4.55;3.70;;;;;;;17.99;90.26;100419.19;5013826;28;20046;-79
2023/05/14 11:26:06;;;;;;;3.88;3.47;;;;;;;18.03;89.70;100424.06;5015901;28;20075;-80
2023/05/14 11:28:34;;;;;;;5.53;3.72;;;;;;;17.82;88.75;100422.88;4985795;28;20055;-80